OOMS/MCT METAR and TAF weather

Enter ICAO airport designator
Station Type Date Time Source
OOMS METAR 2023/01/30 09:50 UTC NOAA

OOMS 300950Z 04010KT CAVOK 23/13 Q1017 NOSIG


Station Type Date Time Source
OOMS Decoded METAR 2023/01/30 09:50 UTC NOAA

Seeb, International Airport, Oman (OOMS) 23-35N 058-17E 17M
Jan 30, 2023 - 04:50 AM EST / 2023.01.30 0950 UTC
Wind: from the NE (040 degrees) at 12 MPH (10 KT):0
Visibility: greater than 7 mile(s):0
Temperature: 73 F (23 C)
Dew Point: 55 F (13 C)
Relative Humidity: 53%
Pressure (altimeter): 30.03 in. Hg (1017 hPa)
ob: OOMS 300950Z 04010KT CAVOK 23/13 Q1017 NOSIG
cycle: 10

Station Type Date Time Source
OOMS TAF 2023/01/30 06:03 UTC NOAA

TAF TAF OOMS 300500Z 3006/3112 03012KT 8000 NSC
BECMG 3018/3020 24003KT
BECMG 3106/3108 05012KT

Example: see airport list